sensor_id;sensor_type;location;lat;lon;timestamp;noise_LAeq;noise_LA_min;noise_LA_max;noise_LA01;noise_LA95
78074;Laerm;67283;50.960;13.856;2024-01-10T00:01:18;37.73;36.60;41.99;;
78074;Laerm;67283;50.960;13.856;2024-01-10T00:03:43;37.74;36.76;38.79;;
78074;Laerm;67283;50.960;13.856;2024-01-10T00:06:09;37.88;36.91;38.84;;
78074;Laerm;67283;50.960;13.856;2024-01-10T00:08:35;53.66;36.82;71.24;;
78074;Laerm;67283;50.960;13.856;2024-01-10T00:11:00;60.26;36.70;78.17;;
78074;Laerm;67283;50.960;13.856;2024-01-10T00:13:26;37.68;36.64;38.48;;
78074;Laerm;67283;50.960;13.856;2024-01-10T00:15:52;37.72;36.78;38.49;;
78074;Laerm;67283;50.960;13.856;2024-01-10T00:18:18;37.75;36.73;38.74;;
78074;Laerm;67283;50.960;13.856;2024-01-10T00:20:43;37.81;36.93;38.91;;
78074;Laerm;67283;50.960;13.856;2024-01-10T00:23:09;37.71;36.89;39.55;;
78074;Laerm;67283;50.960;13.856;2024-01-10T00:25:34;38.95;36.58;48.18;;
78074;Laerm;67283;50.960;13.856;2024-01-10T00:28:00;54.25;36.89;71.87;;
78074;Laerm;67283;50.960;13.856;2024-01-10T00:30:25;37.83;36.85;38.85;;
78074;Laerm;67283;50.960;13.856;2024-01-10T00:32:50;37.93;37.05;38.90;;
78074;Laerm;67283;50.960;13.856;2024-01-10T00:35:16;37.86;36.76;41.08;;
78074;Laerm;67283;50.960;13.856;2024-01-10T00:37:41;37.80;36.95;38.64;;
78074;Laerm;67283;50.960;13.856;2024-01-10T00:40:07;37.91;36.91;40.98;;
78074;Laerm;67283;50.960;13.856;2024-01-10T00:42:32;37.98;36.95;46.00;;
78074;Laerm;67283;50.960;13.856;2024-01-10T00:44:58;38.04;36.65;51.52;;
78074;Laerm;67283;50.960;13.856;2024-01-10T00:47:23;37.86;36.69;38.69;;
78074;Laerm;67283;50.960;13.856;2024-01-10T00:49:49;37.80;36.97;38.80;;
78074;Laerm;67283;50.960;13.856;2024-01-10T00:52:14;37.87;37.04;38.74;;
78074;Laerm;67283;50.960;13.856;2024-01-10T00:54:39;37.73;36.75;38.53;;
78074;Laerm;67283;50.960;13.856;2024-01-10T00:57:05;37.89;36.95;40.59;;
78074;Laerm;67283;50.960;13.856;2024-01-10T00:59:30;37.92;36.85;43.80;;
78074;Laerm;67283;50.960;13.856;2024-01-10T01:01:56;37.70;36.58;38.51;;
78074;Laerm;67283;50.960;13.856;2024-01-10T01:04:21;37.68;36.89;38.60;;
78074;Laerm;67283;50.960;13.856;2024-01-10T01:06:46;37.59;36.67;38.51;;
78074;Laerm;67283;50.960;13.856;2024-01-10T01:09:12;37.66;36.78;38.63;;
78074;Laerm;67283;50.960;13.856;2024-01-10T01:11:40;37.65;36.73;38.55;;
78074;Laerm;67283;50.960;13.856;2024-01-10T01:14:06;37.69;36.60;38.77;;
78074;Laerm;67283;50.960;13.856;2024-01-10T01:16:31;37.75;36.85;38.83;;
78074;Laerm;67283;50.960;13.856;2024-01-10T01:18:56;38.15;37.09;40.64;;
78074;Laerm;67283;50.960;13.856;2024-01-10T01:21:22;37.96;37.09;41.18;;
78074;Laerm;67283;50.960;13.856;2024-01-10T01:23:47;37.90;36.82;38.90;;
78074;Laerm;67283;50.960;13.856;2024-01-10T01:26:13;37.82;36.60;38.66;;
78074;Laerm;67283;50.960;13.856;2024-01-10T01:28:39;37.75;36.73;38.77;;
78074;Laerm;67283;50.960;13.856;2024-01-10T01:31:05;37.76;36.87;38.69;;
78074;Laerm;67283;50.960;13.856;2024-01-10T01:33:30;37.72;36.82;38.59;;
78074;Laerm;67283;50.960;13.856;2024-01-10T01:35:55;37.72;36.64;41.92;;
78074;Laerm;67283;50.960;13.856;2024-01-10T01:38:21;37.82;36.65;40.60;;
78074;Laerm;67283;50.960;13.856;2024-01-10T01:40:46;37.73;36.78;44.14;;
78074;Laerm;67283;50.960;13.856;2024-01-10T01:43:21;37.82;36.88;38.63;;
78074;Laerm;67283;50.960;13.856;2024-01-10T01:45:48;37.95;36.80;38.88;;
78074;Laerm;67283;50.960;13.856;2024-01-10T01:48:15;37.82;36.93;38.70;;
78074;Laerm;67283;50.960;13.856;2024-01-10T01:50:40;37.88;36.93;38.78;;
78074;Laerm;67283;50.960;13.856;2024-01-10T01:53:06;37.88;37.07;39.32;;
78074;Laerm;67283;50.960;13.856;2024-01-10T01:55:31;37.85;36.99;41.18;;
78074;Laerm;67283;50.960;13.856;2024-01-10T01:57:57;37.81;36.91;38.79;;
78074;Laerm;67283;50.960;13.856;2024-01-10T02:00:22;37.90;36.75;38.90;;
78074;Laerm;67283;50.960;13.856;2024-01-10T02:02:48;57.24;36.84;73.58;;
78074;Laerm;67283;50.960;13.856;2024-01-10T02:05:14;37.81;36.96;38.62;;
78074;Laerm;67283;50.960;13.856;2024-01-10T02:07:40;37.92;37.02;39.10;;
78074;Laerm;67283;50.960;13.856;2024-01-10T02:10:06;37.88;37.03;38.60;;
78074;Laerm;67283;50.960;13.856;2024-01-10T02:12:31;37.67;36.82;39.38;;
78074;Laerm;67283;50.960;13.856;2024-01-10T02:14:57;37.61;36.64;38.39;;
78074;Laerm;67283;50.960;13.856;2024-01-10T02:17:22;37.60;36.74;38.42;;
78074;Laerm;67283;50.960;13.856;2024-01-10T02:19:47;38.85;36.78;52.33;;
78074;Laerm;67283;50.960;13.856;2024-01-10T02:22:13;54.42;36.86;72.44;;
78074;Laerm;67283;50.960;13.856;2024-01-10T02:24:38;37.82;36.89;38.73;;
78074;Laerm;67283;50.960;13.856;2024-01-10T02:27:04;37.83;36.89;38.88;;
78074;Laerm;67283;50.960;13.856;2024-01-10T02:29:30;57.24;37.07;73.52;;
78074;Laerm;67283;50.960;13.856;2024-01-10T02:31:55;37.89;36.91;39.30;;
78074;Laerm;67283;50.960;13.856;2024-01-10T02:34:20;37.87;37.08;47.68;;
78074;Laerm;67283;50.960;13.856;2024-01-10T02:36:46;37.81;36.99;38.75;;
78074;Laerm;67283;50.960;13.856;2024-01-10T02:39:11;37.92;36.83;39.04;;
78074;Laerm;67283;50.960;13.856;2024-01-10T02:41:37;55.55;37.04;73.20;;
78074;Laerm;67283;50.960;13.856;2024-01-10T02:44:02;47.57;36.97;62.85;;
78074;Laerm;67283;50.960;13.856;2024-01-10T02:46:27;44.83;36.90;61.05;;
78074;Laerm;67283;50.960;13.856;2024-01-10T02:48:53;37.63;36.70;38.55;;
78074;Laerm;67283;50.960;13.856;2024-01-10T02:51:19;37.76;36.79;39.33;;
78074;Laerm;67283;50.960;13.856;2024-01-10T02:53:45;43.71;37.45;55.08;;
78074;Laerm;67283;50.960;13.856;2024-01-10T02:56:10;37.74;36.80;38.71;;
78074;Laerm;67283;50.960;13.856;2024-01-10T02:58:36;39.09;36.70;56.28;;
78074;Laerm;67283;50.960;13.856;2024-01-10T03:01:01;51.77;36.64;67.84;;
78074;Laerm;67283;50.960;13.856;2024-01-10T03:03:26;54.43;36.77;71.07;;
78074;Laerm;67283;50.960;13.856;2024-01-10T03:05:52;37.88;37.14;38.97;;
78074;Laerm;67283;50.960;13.856;2024-01-10T03:08:17;56.82;37.04;73.38;;
78074;Laerm;67283;50.960;13.856;2024-01-10T03:10:42;37.98;37.08;38.95;;
78074;Laerm;67283;50.960;13.856;2024-01-10T03:13:08;38.03;36.92;53.03;;
78074;Laerm;67283;50.960;13.856;2024-01-10T03:15:33;51.88;36.93;67.49;;
78074;Laerm;67283;50.960;13.856;2024-01-10T03:17:59;57.24;37.33;71.50;;
78074;Laerm;67283;50.960;13.856;2024-01-10T03:20:24;37.82;36.77;40.11;;
78074;Laerm;67283;50.960;13.856;2024-01-10T03:22:49;37.90;36.99;38.82;;
78074;Laerm;67283;50.960;13.856;2024-01-10T03:25:15;37.96;37.08;40.08;;
78074;Laerm;67283;50.960;13.856;2024-01-10T03:27:40;47.10;37.11;63.18;;
78074;Laerm;67283;50.960;13.856;2024-01-10T03:30:06;38.90;37.16;50.41;;
78074;Laerm;67283;50.960;13.856;2024-01-10T03:32:31;54.15;37.02;71.67;;
78074;Laerm;67283;50.960;13.856;2024-01-10T03:34:57;56.07;36.99;70.48;;
78074;Laerm;67283;50.960;13.856;2024-01-10T03:37:22;38.62;36.95;51.14;;
78074;Laerm;67283;50.960;13.856;2024-01-10T03:39:47;58.78;36.98;72.03;;
78074;Laerm;67283;50.960;13.856;2024-01-10T03:42:13;56.49;36.98;71.83;;
78074;Laerm;67283;50.960;13.856;2024-01-10T03:44:40;56.28;37.22;69.46;;
78074;Laerm;67283;50.960;13.856;2024-01-10T03:47:06;38.55;37.26;44.08;;
78074;Laerm;67283;50.960;13.856;2024-01-10T03:49:31;55.63;37.15;71.70;;
78074;Laerm;67283;50.960;13.856;2024-01-10T03:51:56;38.22;36.97;40.76;;
78074;Laerm;67283;50.960;13.856;2024-01-10T03:54:22;37.98;37.09;42.22;;
78074;Laerm;67283;50.960;13.856;2024-01-10T03:56:47;57.35;37.18;72.51;;
78074;Laerm;67283;50.960;13.856;2024-01-10T03:59:13;54.92;37.12;72.05;;
78074;Laerm;67283;50.960;13.856;2024-01-10T04:01:38;59.22;36.94;77.29;;
78074;Laerm;67283;50.960;13.856;2024-01-10T04:04:04;53.71;36.89;71.38;;
78074;Laerm;67283;50.960;13.856;2024-01-10T04:06:30;55.78;37.30;70.24;;
78074;Laerm;67283;50.960;13.856;2024-01-10T04:08:55;57.94;37.20;70.58;;
78074;Laerm;67283;50.960;13.856;2024-01-10T04:11:20;59.90;37.47;73.35;;
78074;Laerm;67283;50.960;13.856;2024-01-10T04:13:46;58.77;37.32;71.57;;
78074;Laerm;67283;50.960;13.856;2024-01-10T04:16:11;60.24;37.22;73.31;;
78074;Laerm;67283;50.960;13.856;2024-01-10T04:18:37;57.81;37.02;72.16;;
78074;Laerm;67283;50.960;13.856;2024-01-10T04:21:02;61.76;38.66;83.87;;
78074;Laerm;67283;50.960;13.856;2024-01-10T04:23:27;60.17;37.61;72.30;;
78074;Laerm;67283;50.960;13.856;2024-01-10T04:25:53;63.48;37.89;73.94;;
78074;Laerm;67283;50.960;13.856;2024-01-10T04:28:19;59.59;37.44;72.99;;
78074;Laerm;67283;50.960;13.856;2024-01-10T04:30:44;62.37;37.54;77.19;;
78074;Laerm;67283;50.960;13.856;2024-01-10T04:33:09;64.20;40.47;73.92;;
78074;Laerm;67283;50.960;13.856;2024-01-10T04:35:35;64.57;39.84;73.28;;
78074;Laerm;67283;50.960;13.856;2024-01-10T04:38:00;63.27;39.98;76.53;;
78074;Laerm;67283;50.960;13.856;2024-01-10T04:40:26;59.59;38.15;72.18;;
78074;Laerm;67283;50.960;13.856;2024-01-10T04:42:51;61.44;37.38;72.10;;
78074;Laerm;67283;50.960;13.856;2024-01-10T04:45:17;62.06;37.41;73.75;;
78074;Laerm;67283;50.960;13.856;2024-01-10T04:47:42;61.16;37.44;73.19;;
78074;Laerm;67283;50.960;13.856;2024-01-10T04:50:10;61.39;37.17;74.99;;
78074;Laerm;67283;50.960;13.856;2024-01-10T04:52:35;56.67;37.18;71.77;;
78074;Laerm;67283;50.960;13.856;2024-01-10T04:55:01;63.07;38.58;74.75;;
78074;Laerm;67283;50.960;13.856;2024-01-10T04:57:27;61.31;37.36;73.58;;
78074;Laerm;67283;50.960;13.856;2024-01-10T04:59:53;62.28;37.79;73.79;;
78074;Laerm;67283;50.960;13.856;2024-01-10T05:02:18;53.90;37.48;71.17;;
78074;Laerm;67283;50.960;13.856;2024-01-10T05:04:44;60.11;37.55;75.57;;
78074;Laerm;67283;50.960;13.856;2024-01-10T05:07:09;63.39;38.39;74.85;;
78074;Laerm;67283;50.960;13.856;2024-01-10T05:09:36;58.30;37.57;71.36;;
78074;Laerm;67283;50.960;13.856;2024-01-10T05:12:02;60.30;37.84;73.71;;
78074;Laerm;67283;50.960;13.856;2024-01-10T05:14:27;62.82;40.12;77.18;;
78074;Laerm;67283;50.960;13.856;2024-01-10T05:16:53;62.96;37.69;74.13;;
78074;Laerm;67283;50.960;13.856;2024-01-10T05:19:18;62.07;37.76;74.18;;
78074;Laerm;67283;50.960;13.856;2024-01-10T05:21:44;63.86;38.20;74.22;;
78074;Laerm;67283;50.960;13.856;2024-01-10T05:24:09;65.60;40.67;75.88;;
78074;Laerm;67283;50.960;13.856;2024-01-10T05:26:35;67.06;48.82;74.78;;
78074;Laerm;67283;50.960;13.856;2024-01-10T05:29:00;64.47;38.06;77.06;;
78074;Laerm;67283;50.960;13.856;2024-01-10T05:31:26;62.96;37.95;74.61;;
78074;Laerm;67283;50.960;13.856;2024-01-10T05:33:51;64.09;38.87;74.32;;
78074;Laerm;67283;50.960;13.856;2024-01-10T05:36:21;66.07;42.37;76.42;;
78074;Laerm;67283;50.960;13.856;2024-01-10T05:38:46;62.45;38.44;72.84;;
78074;Laerm;67283;50.960;13.856;2024-01-10T05:41:12;64.51;40.78;75.36;;
78074;Laerm;67283;50.960;13.856;2024-01-10T05:43:37;61.19;37.73;74.17;;
78074;Laerm;67283;50.960;13.856;2024-01-10T05:46:02;62.33;37.75;72.86;;
78074;Laerm;67283;50.960;13.856;2024-01-10T05:48:30;63.17;38.36;73.56;;
78074;Laerm;67283;50.960;13.856;2024-01-10T05:50:55;60.07;38.21;73.27;;
78074;Laerm;67283;50.960;13.856;2024-01-10T05:53:22;63.53;37.82;73.04;;
78074;Laerm;67283;50.960;13.856;2024-01-10T05:55:47;63.49;43.83;74.79;;
78074;Laerm;67283;50.960;13.856;2024-01-10T05:58:13;61.14;37.68;73.84;;
78074;Laerm;67283;50.960;13.856;2024-01-10T06:00:38;56.13;37.69;70.36;;
78074;Laerm;67283;50.960;13.856;2024-01-10T06:03:04;60.23;38.21;72.79;;
78074;Laerm;67283;50.960;13.856;2024-01-10T06:05:29;63.91;41.35;74.39;;
78074;Laerm;67283;50.960;13.856;2024-01-10T06:07:56;62.72;40.17;74.09;;
78074;Laerm;67283;50.960;13.856;2024-01-10T06:10:22;63.81;39.23;77.83;;
78074;Laerm;67283;50.960;13.856;2024-01-10T06:12:47;60.53;39.94;72.20;;
78074;Laerm;67283;50.960;13.856;2024-01-10T06:15:13;64.42;40.02;73.63;;
78074;Laerm;67283;50.960;13.856;2024-01-10T06:17:39;63.46;39.20;77.27;;
78074;Laerm;67283;50.960;13.856;2024-01-10T06:20:05;66.13;42.05;75.94;;
78074;Laerm;67283;50.960;13.856;2024-01-10T06:22:31;63.16;38.25;73.20;;
78074;Laerm;67283;50.960;13.856;2024-01-10T06:24:57;63.34;40.85;74.09;;
78074;Laerm;67283;50.960;13.856;2024-01-10T06:27:22;63.18;39.30;72.64;;
78074;Laerm;67283;50.960;13.856;2024-01-10T06:29:48;60.73;38.12;73.54;;
78074;Laerm;67283;50.960;13.856;2024-01-10T06:32:13;63.69;39.25;76.04;;
78074;Laerm;67283;50.960;13.856;2024-01-10T06:34:39;60.95;37.88;72.14;;
78074;Laerm;67283;50.960;13.856;2024-01-10T06:37:05;62.70;37.66;74.06;;
78074;Laerm;67283;50.960;13.856;2024-01-10T06:39:32;60.41;37.45;72.86;;
78074;Laerm;67283;50.960;13.856;2024-01-10T06:41:57;61.40;37.51;73.55;;
78074;Laerm;67283;50.960;13.856;2024-01-10T06:44:23;64.20;38.21;77.40;;
78074;Laerm;67283;50.960;13.856;2024-01-10T06:46:48;61.38;37.63;72.89;;
78074;Laerm;67283;50.960;13.856;2024-01-10T06:49:14;60.07;37.51;73.12;;
78074;Laerm;67283;50.960;13.856;2024-01-10T06:51:39;61.44;37.67;73.35;;
78074;Laerm;67283;50.960;13.856;2024-01-10T06:54:05;63.39;44.88;73.10;;
78074;Laerm;67283;50.960;13.856;2024-01-10T06:56:31;51.01;37.40;66.16;;
78074;Laerm;67283;50.960;13.856;2024-01-10T06:58:57;61.11;41.02;73.31;;
78074;Laerm;67283;50.960;13.856;2024-01-10T07:01:22;60.09;40.82;73.99;;
78074;Laerm;67283;50.960;13.856;2024-01-10T07:03:47;57.61;41.14;73.01;;
78074;Laerm;67283;50.960;13.856;2024-01-10T07:06:13;60.94;40.82;73.28;;
78074;Laerm;67283;50.960;13.856;2024-01-10T07:08:41;59.63;41.17;72.64;;
78074;Laerm;67283;50.960;13.856;2024-01-10T07:11:10;59.00;40.97;74.51;;
78074;Laerm;67283;50.960;13.856;2024-01-10T07:13:36;62.24;40.85;75.05;;
78074;Laerm;67283;50.960;13.856;2024-01-10T07:16:02;65.15;44.86;80.63;;
78074;Laerm;67283;50.960;13.856;2024-01-10T07:18:28;62.32;40.73;74.13;;
78074;Laerm;67283;50.960;13.856;2024-01-10T07:20:53;62.30;39.75;72.32;;
78074;Laerm;67283;50.960;13.856;2024-01-10T07:23:18;63.05;37.78;77.36;;
78074;Laerm;67283;50.960;13.856;2024-01-10T07:25:44;64.81;38.38;78.62;;
78074;Laerm;67283;50.960;13.856;2024-01-10T07:28:09;59.59;37.64;73.57;;
78074;Laerm;67283;50.960;13.856;2024-01-10T07:30:35;59.72;38.25;73.27;;
78074;Laerm;67283;50.960;13.856;2024-01-10T07:33:00;63.65;41.41;74.74;;
78074;Laerm;67283;50.960;13.856;2024-01-10T07:35:26;64.54;38.87;76.85;;
78074;Laerm;67283;50.960;13.856;2024-01-10T07:37:52;60.13;37.77;72.47;;
78074;Laerm;67283;50.960;13.856;2024-01-10T07:40:18;55.42;37.56;69.81;;
78074;Laerm;67283;50.960;13.856;2024-01-10T07:42:43;63.00;38.41;73.05;;
78074;Laerm;67283;50.960;13.856;2024-01-10T07:45:09;59.95;37.99;72.94;;
78074;Laerm;67283;50.960;13.856;2024-01-10T07:47:35;59.75;37.68;71.72;;
78074;Laerm;67283;50.960;13.856;2024-01-10T07:50:06;59.61;37.67;72.32;;
78074;Laerm;67283;50.960;13.856;2024-01-10T07:52:32;63.69;37.58;79.13;;
78074;Laerm;67283;50.960;13.856;2024-01-10T07:54:58;59.77;37.80;70.92;;
78074;Laerm;67283;50.960;13.856;2024-01-10T07:57:23;63.56;41.17;74.78;;
78074;Laerm;67283;50.960;13.856;2024-01-10T07:59:49;58.14;37.72;72.21;;
78074;Laerm;67283;50.960;13.856;2024-01-10T08:02:14;61.52;38.69;75.61;;
78074;Laerm;67283;50.960;13.856;2024-01-10T08:04:40;60.25;37.88;71.55;;
78074;Laerm;67283;50.960;13.856;2024-01-10T08:07:05;59.11;37.76;73.14;;
78074;Laerm;67283;50.960;13.856;2024-01-10T08:09:31;58.42;38.01;71.52;;
78074;Laerm;67283;50.960;13.856;2024-01-10T08:11:56;61.57;37.92;73.50;;
78074;Laerm;67283;50.960;13.856;2024-01-10T08:14:22;52.64;37.33;71.46;;
78074;Laerm;67283;50.960;13.856;2024-01-10T08:16:48;38.89;37.38;44.50;;
78074;Laerm;67283;50.960;13.856;2024-01-10T08:19:13;59.25;37.69;74.19;;
78074;Laerm;67283;50.960;13.856;2024-01-10T08:21:38;61.79;37.56;72.24;;
78074;Laerm;67283;50.960;13.856;2024-01-10T08:24:04;62.00;39.05;75.87;;
78074;Laerm;67283;50.960;13.856;2024-01-10T08:26:30;65.00;40.89;79.64;;
78074;Laerm;67283;50.960;13.856;2024-01-10T08:28:56;58.51;38.42;70.79;;
78074;Laerm;67283;50.960;13.856;2024-01-10T08:31:21;62.31;39.51;72.02;;
78074;Laerm;67283;50.960;13.856;2024-01-10T08:33:48;60.88;40.98;72.06;;
78074;Laerm;67283;50.960;13.856;2024-01-10T08:36:13;55.74;37.63;71.39;;
78074;Laerm;67283;50.960;13.856;2024-01-10T08:38:39;58.63;38.11;72.29;;
78074;Laerm;67283;50.960;13.856;2024-01-10T08:41:07;57.53;37.81;72.13;;
78074;Laerm;67283;50.960;13.856;2024-01-10T08:43:33;60.60;38.04;74.40;;
78074;Laerm;67283;50.960;13.856;2024-01-10T08:45:59;59.16;37.95;73.38;;
78074;Laerm;67283;50.960;13.856;2024-01-10T08:48:24;61.71;40.90;72.56;;
78074;Laerm;67283;50.960;13.856;2024-01-10T08:50:50;61.76;37.89;74.98;;
78074;Laerm;67283;50.960;13.856;2024-01-10T08:53:15;52.78;37.93;71.23;;
78074;Laerm;67283;50.960;13.856;2024-01-10T08:55:41;59.65;38.52;72.49;;
78074;Laerm;67283;50.960;13.856;2024-01-10T08:58:06;60.66;38.23;75.89;;
78074;Laerm;67283;50.960;13.856;2024-01-10T09:00:32;58.30;37.99;73.25;;
78074;Laerm;67283;50.960;13.856;2024-01-10T09:02:57;59.47;38.27;71.46;;
78074;Laerm;67283;50.960;13.856;2024-01-10T09:05:23;58.35;38.23;72.11;;
78074;Laerm;67283;50.960;13.856;2024-01-10T09:07:48;66.88;37.89;95.47;;
78074;Laerm;67283;50.960;13.856;2024-01-10T09:10:14;62.04;41.85;75.77;;
78074;Laerm;67283;50.960;13.856;2024-01-10T09:12:39;56.62;38.02;70.94;;
78074;Laerm;67283;50.960;13.856;2024-01-10T09:15:08;60.05;37.99;76.90;;
78074;Laerm;67283;50.960;13.856;2024-01-10T09:17:38;59.86;38.31;72.16;;
78074;Laerm;67283;50.960;13.856;2024-01-10T09:20:03;60.35;38.76;71.59;;
78074;Laerm;67283;50.960;13.856;2024-01-10T09:22:29;59.88;38.62;73.75;;
78074;Laerm;67283;50.960;13.856;2024-01-10T09:24:54;51.05;37.89;64.85;;
78074;Laerm;67283;50.960;13.856;2024-01-10T09:27:20;58.43;38.27;72.84;;
78074;Laerm;67283;50.960;13.856;2024-01-10T09:29:45;57.62;37.98;72.61;;
78074;Laerm;67283;50.960;13.856;2024-01-10T09:32:11;62.64;38.20;75.56;;
78074;Laerm;67283;50.960;13.856;2024-01-10T09:34:36;63.16;42.03;75.70;;
78074;Laerm;67283;50.960;13.856;2024-01-10T09:37:02;57.58;37.96;72.05;;
78074;Laerm;67283;50.960;13.856;2024-01-10T09:39:27;56.64;38.22;68.92;;
78074;Laerm;67283;50.960;13.856;2024-01-10T09:41:52;61.57;39.57;73.72;;
78074;Laerm;67283;50.960;13.856;2024-01-10T09:44:18;56.34;37.62;71.52;;
78074;Laerm;67283;50.960;13.856;2024-01-10T09:46:51;59.42;37.57;73.53;;
78074;Laerm;67283;50.960;13.856;2024-01-10T09:49:18;57.50;37.79;70.58;;
78074;Laerm;67283;50.960;13.856;2024-01-10T09:51:44;62.93;39.86;78.69;;
78074;Laerm;67283;50.960;13.856;2024-01-10T09:54:12;59.59;38.42;71.32;;
78074;Laerm;67283;50.960;13.856;2024-01-10T09:56:39;61.85;38.24;74.46;;
78074;Laerm;67283;50.960;13.856;2024-01-10T09:59:06;57.60;38.38;70.78;;
78074;Laerm;67283;50.960;13.856;2024-01-10T10:01:36;60.92;38.40;72.25;;
78074;Laerm;67283;50.960;13.856;2024-01-10T10:04:01;61.99;39.54;72.13;;
78074;Laerm;67283;50.960;13.856;2024-01-10T10:06:27;64.33;37.83;77.97;;
78074;Laerm;67283;50.960;13.856;2024-01-10T10:08:52;63.28;37.85;77.53;;
78074;Laerm;67283;50.960;13.856;2024-01-10T10:11:18;59.73;37.90;73.66;;
78074;Laerm;67283;50.960;13.856;2024-01-10T10:13:43;55.65;37.51;71.17;;
78074;Laerm;67283;50.960;13.856;2024-01-10T10:16:09;55.53;37.69;70.02;;
78074;Laerm;67283;50.960;13.856;2024-01-10T10:18:35;62.14;38.01;76.69;;
78074;Laerm;67283;50.960;13.856;2024-01-10T10:21:07;60.18;38.11;72.88;;
78074;Laerm;67283;50.960;13.856;2024-01-10T10:23:34;59.76;38.07;75.76;;
78074;Laerm;67283;50.960;13.856;2024-01-10T10:26:02;59.33;37.73;72.75;;
78074;Laerm;67283;50.960;13.856;2024-01-10T10:28:35;59.09;37.38;70.86;;
78074;Laerm;67283;50.960;13.856;2024-01-10T10:31:00;53.82;37.24;69.54;;
78074;Laerm;67283;50.960;13.856;2024-01-10T10:33:25;59.05;37.67;74.59;;
78074;Laerm;67283;50.960;13.856;2024-01-10T10:35:51;60.71;38.71;73.44;;
78074;Laerm;67283;50.960;13.856;2024-01-10T10:38:16;56.08;37.89;72.08;;
78074;Laerm;67283;50.960;13.856;2024-01-10T10:40:41;61.51;41.74;71.07;;
78074;Laerm;67283;50.960;13.856;2024-01-10T10:43:08;60.37;38.00;71.60;;
78074;Laerm;67283;50.960;13.856;2024-01-10T10:45:36;59.24;37.49;73.78;;
78074;Laerm;67283;50.960;13.856;2024-01-10T10:48:01;61.48;39.18;74.47;;
78074;Laerm;67283;50.960;13.856;2024-01-10T10:50:33;61.29;38.27;72.39;;
78074;Laerm;67283;50.960;13.856;2024-01-10T10:53:00;53.94;37.73;68.42;;
78074;Laerm;67283;50.960;13.856;2024-01-10T10:55:27;58.04;37.59;72.79;;
78074;Laerm;67283;50.960;13.856;2024-01-10T10:57:54;60.16;39.46;71.71;;
78074;Laerm;67283;50.960;13.856;2024-01-10T11:00:20;62.10;40.45;71.82;;
78074;Laerm;67283;50.960;13.856;2024-01-10T11:02:47;57.51;38.36;70.66;;
78074;Laerm;67283;50.960;13.856;2024-01-10T11:05:14;59.96;37.14;76.30;;
78074;Laerm;67283;50.960;13.856;2024-01-10T11:07:43;61.27;37.88;75.96;;
78074;Laerm;67283;50.960;13.856;2024-01-10T11:10:13;59.52;37.45;71.16;;
78074;Laerm;67283;50.960;13.856;2024-01-10T11:15:24;60.86;38.05;77.60;;
78074;Laerm;67283;50.960;13.856;2024-01-10T11:18:06;61.48;37.63;73.37;;
78074;Laerm;67283;50.960;13.856;2024-01-10T11:23:12;60.82;38.86;70.71;;
78074;Laerm;67283;50.960;13.856;2024-01-10T11:25:42;61.31;38.97;71.60;;
78074;Laerm;67283;50.960;13.856;2024-01-10T11:28:08;64.04;37.66;78.64;;
78074;Laerm;67283;50.960;13.856;2024-01-10T11:30:34;60.40;39.60;72.36;;
78074;Laerm;67283;50.960;13.856;2024-01-10T11:33:01;60.63;40.31;71.14;;
78074;Laerm;67283;50.960;13.856;2024-01-10T11:35:26;62.19;37.89;77.55;;
78074;Laerm;67283;50.960;13.856;2024-01-10T11:37:56;55.91;37.08;71.63;;
78074;Laerm;67283;50.960;13.856;2024-01-10T11:43:08;60.77;37.82;72.83;;
78074;Laerm;67283;50.960;13.856;2024-01-10T11:45:37;57.97;38.30;72.12;;
78074;Laerm;67283;50.960;13.856;2024-01-10T11:48:03;59.74;37.98;72.98;;
78074;Laerm;67283;50.960;13.856;2024-01-10T11:50:28;59.48;37.30;74.88;;
78074;Laerm;67283;50.960;13.856;2024-01-10T11:52:56;62.17;39.00;77.20;;
78074;Laerm;67283;50.960;13.856;2024-01-10T11:58:08;60.52;37.60;74.17;;
78074;Laerm;67283;50.960;13.856;2024-01-10T12:00:34;62.46;40.82;73.52;;
78074;Laerm;67283;50.960;13.856;2024-01-10T12:03:00;59.68;38.02;70.66;;
78074;Laerm;67283;50.960;13.856;2024-01-10T12:05:27;55.08;36.87;71.22;;
78074;Laerm;67283;50.960;13.856;2024-01-10T12:07:54;63.37;38.96;74.57;;
78074;Laerm;67283;50.960;13.856;2024-01-10T12:10:20;59.56;38.98;71.41;;
78074;Laerm;67283;50.960;13.856;2024-01-10T12:12:46;62.49;39.73;77.63;;
78074;Laerm;67283;50.960;13.856;2024-01-10T12:15:11;63.92;41.03;74.16;;
78074;Laerm;67283;50.960;13.856;2024-01-10T12:17:37;59.72;37.81;74.38;;
78074;Laerm;67283;50.960;13.856;2024-01-10T12:20:02;62.44;37.80;74.86;;
78074;Laerm;67283;50.960;13.856;2024-01-10T12:22:28;62.57;41.83;72.56;;
78074;Laerm;67283;50.960;13.856;2024-01-10T12:24:53;60.99;39.22;75.00;;
78074;Laerm;67283;50.960;13.856;2024-01-10T12:27:19;61.16;38.04;75.02;;
78074;Laerm;67283;50.960;13.856;2024-01-10T12:29:47;60.69;38.16;72.52;;
78074;Laerm;67283;50.960;13.856;2024-01-10T12:32:17;58.70;38.77;71.32;;
78074;Laerm;67283;50.960;13.856;2024-01-10T12:34:42;57.55;38.93;73.09;;
78074;Laerm;67283;50.960;13.856;2024-01-10T12:37:09;61.15;38.03;75.61;;
78074;Laerm;67283;50.960;13.856;2024-01-10T12:39:36;61.43;44.69;73.22;;
78074;Laerm;67283;50.960;13.856;2024-01-10T12:42:01;59.40;37.87;76.35;;
78074;Laerm;67283;50.960;13.856;2024-01-10T12:44:30;58.58;38.48;72.02;;
78074;Laerm;67283;50.960;13.856;2024-01-10T12:46:56;61.73;37.74;75.26;;
78074;Laerm;67283;50.960;13.856;2024-01-10T12:49:22;61.59;46.07;70.79;;
78074;Laerm;67283;50.960;13.856;2024-01-10T12:51:48;58.27;37.57;71.18;;
78074;Laerm;67283;50.960;13.856;2024-01-10T12:54:14;61.30;39.37;71.93;;
78074;Laerm;67283;50.960;13.856;2024-01-10T12:56:39;61.43;40.45;74.64;;
78074;Laerm;67283;50.960;13.856;2024-01-10T12:59:05;60.72;38.48;74.97;;
78074;Laerm;67283;50.960;13.856;2024-01-10T13:01:30;63.19;38.41;75.53;;
78074;Laerm;67283;50.960;13.856;2024-01-10T13:03:55;61.72;37.77;72.66;;
78074;Laerm;67283;50.960;13.856;2024-01-10T13:06:21;60.29;37.66;72.00;;
78074;Laerm;67283;50.960;13.856;2024-01-10T13:08:47;58.80;37.16;71.65;;
78074;Laerm;67283;50.960;13.856;2024-01-10T13:11:13;60.17;37.13;71.38;;
78074;Laerm;67283;50.960;13.856;2024-01-10T13:13:39;58.86;37.81;71.89;;
78074;Laerm;67283;50.960;13.856;2024-01-10T13:16:05;60.97;39.98;71.26;;
78074;Laerm;67283;50.960;13.856;2024-01-10T13:18:31;64.22;43.75;76.14;;
78074;Laerm;67283;50.960;13.856;2024-01-10T13:20:56;59.04;38.61;71.81;;
78074;Laerm;67283;50.960;13.856;2024-01-10T13:23:22;63.70;46.97;74.58;;
78074;Laerm;67283;50.960;13.856;2024-01-10T13:25:49;62.46;45.35;77.41;;
78074;Laerm;67283;50.960;13.856;2024-01-10T13:28:14;61.84;39.57;72.27;;
78074;Laerm;67283;50.960;13.856;2024-01-10T13:30:40;57.82;37.53;68.88;;
78074;Laerm;67283;50.960;13.856;2024-01-10T13:33:07;61.23;38.27;75.20;;
78074;Laerm;67283;50.960;13.856;2024-01-10T13:35:34;61.69;38.29;72.50;;